Quick Links (Output Below):   Max & Min Temps   /   Climate Reports   /   Zone Forecasts
River Forecasts   /   Forestry Forecasts   /   Aviation Forecasts   /   Radars   /   Features

Terminal Aerodrome Forecast (Jonesboro)

Pick a Site:
Arkadelphia | El Dorado | Fayetteville | Fort Smith | Harrison | Highfill | Hot Springs | Jonesboro
Little Rock | Monticello | Mountain Home | Pine Bluff | Texarkana
 Forecast 

KJBR 050105Z 0501/0524 VRB03KT P6SM SCT018 BKN035 OVC150
      TEMPO 0501/0502 5SM -SHRA BKN018 OVC035
     FM050200 VRB02KT P6SM SCT030 BKN150
     FM050600 VRB02KT 5SM BR BKN015
      TEMPO 0509/0513 2SM BR OVC007
     FM051600 16004KT P6SM SCT020 BKN035
     FM051900 19008KT P6SM BKN040=


 Latest METARs (Observations) 
How to Decode METARs
04Z KJBR 050353Z AUTO 00000KT 9SM OVC065 23/23 A3001 RMK AO2 SLP161
         T02330228
         
00Z KJBR 042353Z AUTO 18006KT 10SM SCT024 26/22 A2995 RMK AO2 LTG DSNT
         E SLP140 T02560222 10272 20244 53001
         
***** Today's Observations (Above) *****


23Z KJBR 042253Z AUTO 19006KT 10SM FEW022 BKN031 BKN044 26/22 A2995
         RMK AO2 SLP140 T02610222
         
18Z KJBR 041753Z AUTO 00000KT 10SM OVC031 24/22 A3000 RMK AO2 SLP155
         T02440217 10244 20211 53002
         
13Z KJBR 041253Z AUTO 00000KT 2 1/2SM BR OVC002 22/22 A2997 RMK AO2
         SLP147 T02170217
         
12Z KJBR 041153Z AUTO 00000KT 1/2SM FG VV002 21/21 A2996 RMK AO2
         SLP142 70027 T02110211 10217 20200 53018
         
11Z KJBR 041053Z AUTO 00000KT 3/4SM BR VV002 21/21 A2994 RMK AO2
         SLP136 T02110211
         
09Z KJBR 040853Z AUTO 03004KT 9SM BKN018 20/20 A2990 RMK AO2 SLP124
         T02000200 53003
         
08Z KJBR 040753Z AUTO 00000KT 8SM CLR 20/20 A2989 RMK AO2 SLP119
         T02000200
         
07Z KJBR 040653Z AUTO 21003KT 10SM CLR 21/21 A2989 RMK AO2 SLP120
         T02110206
         
***** Yesterday's Observations (Above) *****


Back to Main Page
http://www.srh.noaa.gov/lzk/qfcst.php

USA.gov is the U.S. government's official web portal to all federal, state and local government web resources and services.